Time;durP1;ratioP1;P1;durP2;ratioP2;P2;SDS_P1;SDS_P2;PMS_P1;PMS_P2;Temp;Humidity;BMP_temperature;BMP_pressure;BME280_temperature;BME280_humidity;BME280_pressure;Samples;Min_cycle;Max_cycle;Signal;HPM_P1;HPM_P2
2023/12/13 00:02:16;;;;;;;26.65;21.58;;;12.80;99.90;;;;;;5033760;28;20026;-65
2023/12/13 00:04:41;;;;;;;25.38;20.80;;;12.80;99.90;;;;;;5034118;28;20025;-62
2023/12/13 00:07:07;;;;;;;20.48;18.30;;;12.80;99.90;;;;;;5034015;28;20028;-69
2023/12/13 00:09:33;;;;;;;20.90;18.08;;;12.80;99.90;;;;;;5033442;28;20033;-64
2023/12/13 00:11:58;;;;;;;20.08;17.30;;;12.80;99.90;;;;;;5033631;28;20048;-66
2023/12/13 00:14:24;;;;;;;19.27;17.08;;;12.80;99.90;;;;;;5033920;28;20472;-70
2023/12/13 00:16:51;;;;;;;23.60;19.75;;;12.80;99.90;;;;;;5033467;28;20022;-65
2023/12/13 00:19:16;;;;;;;28.73;23.08;;;12.80;99.90;;;;;;5033797;28;20085;-63
2023/12/13 00:21:43;;;;;;;21.50;19.20;;;12.80;99.90;;;;;;5033731;28;20030;-68
2023/12/13 00:24:09;;;;;;;25.30;21.60;;;12.80;99.90;;;;;;5033699;28;20018;-64
2023/12/13 00:26:35;;;;;;;27.17;21.85;;;12.70;99.90;;;;;;5033778;28;20032;-67
2023/12/13 00:29:00;;;;;;;31.17;25.58;;;12.80;99.90;;;;;;5033707;28;20025;-70
2023/12/13 00:31:26;;;;;;;26.85;22.80;;;12.70;99.90;;;;;;5033307;28;20498;-67
2023/12/13 00:33:52;;;;;;;23.13;19.80;;;12.70;99.90;;;;;;5033615;28;20170;-66
2023/12/13 00:36:18;;;;;;;24.38;21.00;;;12.70;99.90;;;;;;5033590;28;20021;-66
2023/12/13 00:38:44;;;;;;;25.92;23.10;;;12.70;99.90;;;;;;5033420;28;20029;-65
2023/12/13 00:41:09;;;;;;;22.92;20.45;;;12.70;99.90;;;;;;5033477;28;20057;-65
2023/12/13 00:43:35;;;;;;;26.35;21.50;;;12.70;99.90;;;;;;5033516;28;20024;-68
2023/12/13 00:46:01;;;;;;;22.67;20.13;;;12.70;99.90;;;;;;5032016;28;20025;-63
2023/12/13 00:48:26;;;;;;;22.60;19.92;;;12.70;99.90;;;;;;5033047;28;20458;-64
2023/12/13 00:50:52;;;;;;;28.80;23.67;;;12.70;99.90;;;;;;5033394;28;20060;-67
2023/12/13 00:53:18;;;;;;;22.13;19.58;;;12.70;99.90;;;;;;5033391;28;20491;-67
2023/12/13 00:55:44;;;;;;;23.65;21.02;;;12.60;99.90;;;;;;5033219;28;20024;-67
2023/12/13 00:58:09;;;;;;;21.55;18.67;;;12.70;99.90;;;;;;5033342;28;20033;-65
2023/12/13 01:00:35;;;;;;;22.42;19.95;;;12.70;99.90;;;;;;5032936;28;20064;-66
2023/12/13 01:03:01;;;;;;;22.10;18.63;;;12.70;99.90;;;;;;5033091;28;20056;-65
2023/12/13 01:05:26;;;;;;;22.00;19.35;;;12.70;99.90;;;;;;5033250;28;20028;-64
2023/12/13 01:07:52;;;;;;;20.48;17.92;;;12.60;99.90;;;;;;5033167;28;20357;-64
2023/12/13 01:10:20;;;;;;;19.80;17.60;;;12.60;99.90;;;;;;5033127;28;20098;-65
2023/12/13 01:12:45;;;;;;;19.20;17.13;;;12.60;99.90;;;;;;5032210;28;20444;-69
2023/12/13 01:15:11;;;;;;;17.77;15.88;;;12.60;99.90;;;;;;5032955;28;20104;-66
2023/12/13 01:17:37;;;;;;;18.38;15.18;;;12.60;99.90;;;;;;5033079;28;20063;-67
2023/12/13 01:20:06;;;;;;;17.23;14.70;;;12.60;99.90;;;;;;5032890;28;20029;-66
2023/12/13 01:22:32;;;;;;;17.95;15.55;;;12.60;99.90;;;;;;5035798;28;20112;-65
2023/12/13 01:24:58;;;;;;;21.10;17.13;;;12.70;99.90;;;;;;5037012;28;20032;-65
2023/12/13 01:27:24;;;;;;;17.77;15.13;;;12.70;99.90;;;;;;5036927;28;20025;-67
2023/12/13 01:29:49;;;;;;;19.08;16.65;;;12.70;99.90;;;;;;5036880;28;20102;-64
2023/12/13 01:32:15;;;;;;;20.73;16.73;;;12.70;99.90;;;;;;5036873;28;20053;-67
2023/12/13 01:34:41;;;;;;;22.55;19.52;;;12.70;99.90;;;;;;5036825;28;20025;-65
2023/12/13 01:37:06;;;;;;;20.45;17.25;;;12.70;99.90;;;;;;5036969;28;20508;-63
2023/12/13 01:39:32;;;;;;;18.98;16.92;;;12.70;99.90;;;;;;5036714;28;20022;-67
2023/12/13 01:41:58;;;;;;;26.35;21.40;;;12.60;99.90;;;;;;5036683;28;20025;-68
2023/12/13 01:44:24;;;;;;;22.85;19.77;;;12.60;99.90;;;;;;5036520;28;20049;-70
2023/12/13 01:46:50;;;;;;;26.08;22.00;;;12.50;99.90;;;;;;5036695;28;20021;-65
2023/12/13 01:49:16;;;;;;;27.63;24.23;;;12.50;99.90;;;;;;5036488;28;20488;-66
2023/12/13 01:51:43;;;;;;;25.42;21.85;;;12.30;99.90;;;;;;5036622;28;20021;-65
2023/12/13 01:54:12;;;;;;;22.73;19.33;;;12.20;99.90;;;;;;5036515;28;20025;-64
2023/12/13 01:56:43;;;;;;;22.55;19.83;;;12.30;99.90;;;;;;5036372;28;20025;-67
2023/12/13 01:59:09;;;;;;;22.92;20.35;;;12.40;99.90;;;;;;5036099;28;20108;-70
2023/12/13 02:01:36;;;;;;;20.85;16.92;;;12.40;99.90;;;;;;5036346;28;20105;-65
2023/12/13 02:04:02;;;;;;;19.38;17.20;;;12.40;99.90;;;;;;5036235;28;20026;-65
2023/12/13 02:06:29;;;;;;;17.05;15.25;;;12.50;99.90;;;;;;5036280;28;20021;-64
2023/12/13 02:08:55;;;;;;;17.10;15.18;;;12.50;99.90;;;;;;5036382;28;20357;-62
2023/12/13 02:11:21;;;;;;;18.33;15.52;;;12.50;99.90;;;;;;5036284;28;20215;-69
2023/12/13 02:13:46;;;;;;;16.92;14.82;;;12.60;99.90;;;;;;5035895;28;20129;-70
2023/12/13 02:16:12;;;;;;;16.63;13.98;;;12.50;99.90;;;;;;5036083;28;20022;-70
2023/12/13 02:18:38;;;;;;;16.25;14.52;;;12.60;99.90;;;;;;5036045;28;20411;-66
2023/12/13 02:21:05;;;;;;;17.80;14.50;;;12.50;99.90;;;;;;5034583;28;20035;-67
2023/12/13 02:23:30;;;;;;;16.75;14.98;;;12.50;99.90;;;;;;5035962;28;20183;-66
2023/12/13 02:26:00;;;;;;;15.45;13.40;;;12.50;99.90;;;;;;5035902;28;20033;-62
2023/12/13 02:28:27;;;;;;;14.90;13.30;;;12.50;99.90;;;;;;5035621;28;20109;-63
2023/12/13 02:31:00;;;;;;;14.07;11.95;;;12.50;99.90;;;;;;5035922;28;20491;-66
2023/12/13 02:33:26;;;;;;;12.18;10.50;;;12.50;99.90;;;;;;5034877;28;20017;-63
2023/12/13 02:35:58;;;;;;;14.20;11.73;;;12.50;99.90;;;;;;5035698;28;20028;-66
2023/12/13 02:38:24;;;;;;;12.50;10.50;;;12.60;99.90;;;;;;5035718;28;20522;-62
2023/12/13 02:40:50;;;;;;;14.98;11.98;;;12.50;99.90;;;;;;5035843;28;20563;-65
2023/12/13 02:43:16;;;;;;;13.93;12.43;;;12.60;99.90;;;;;;5035442;28;20104;-64
2023/12/13 02:45:41;;;;;;;12.95;11.48;;;12.60;99.90;;;;;;5035628;28;20056;-64
2023/12/13 02:48:07;;;;;;;13.40;11.05;;;12.60;99.90;;;;;;5035328;28;20041;-68
2023/12/13 02:50:38;;;;;;;12.88;11.57;;;12.60;99.90;;;;;;5035323;28;20041;-65
2023/12/13 02:53:07;;;;;;;12.73;10.77;;;12.60;99.90;;;;;;5035481;28;20025;-62
2023/12/13 02:55:33;;;;;;;10.77;9.68;;;12.50;99.90;;;;;;5035365;28;20017;-65
2023/12/13 02:58:03;;;;;;;10.77;9.68;;;12.50;99.90;;;;;;5035091;28;20499;-64
2023/12/13 03:00:29;;;;;;;10.95;9.57;;;12.60;99.90;;;;;;5035232;28;20017;-66
2023/12/13 03:02:56;;;;;;;9.98;8.52;;;12.60;99.90;;;;;;5035208;28;20392;-64
2023/12/13 03:05:22;;;;;;;11.80;10.60;;;12.60;99.90;;;;;;5035318;28;20061;-62
2023/12/13 03:07:48;;;;;;;11.38;9.32;;;12.60;99.90;;;;;;5035200;28;20052;-64
2023/12/13 03:10:13;;;;;;;9.02;7.88;;;12.60;99.90;;;;;;5035118;28;20078;-68
2023/12/13 03:12:39;;;;;;;8.98;8.18;;;12.60;99.90;;;;;;5034782;28;20360;-64
2023/12/13 03:15:06;;;;;;;10.75;9.63;;;12.60;99.90;;;;;;5035148;28;20078;-67
2023/12/13 03:17:32;;;;;;;9.23;8.25;;;12.50;99.90;;;;;;5035009;28;20026;-63
2023/12/13 03:19:57;;;;;;;10.05;9.00;;;12.50;99.90;;;;;;5034712;28;20401;-66
2023/12/13 03:22:23;;;;;;;9.30;8.40;;;12.40;99.90;;;;;;5034935;28;20032;-62
2023/12/13 03:24:51;;;;;;;11.75;9.68;;;12.40;99.90;;;;;;5034844;28;20049;-62
2023/12/13 03:27:17;;;;;;;9.77;8.38;;;12.40;99.90;;;;;;5034502;28;20100;-64
2023/12/13 03:29:43;;;;;;;9.20;8.13;;;12.40;99.90;;;;;;5034845;28;20108;-65
2023/12/13 03:32:09;;;;;;;9.40;8.40;;;12.40;99.90;;;;;;5034663;28;20021;-67
2023/12/13 03:34:35;;;;;;;9.57;8.43;;;12.40;99.90;;;;;;5034508;28;20419;-65
2023/12/13 03:37:02;;;;;;;8.77;7.72;;;12.30;99.90;;;;;;5034769;28;20545;-65
2023/12/13 03:39:27;;;;;;;14.43;10.25;;;12.30;99.90;;;;;;5034561;28;20025;-68
2023/12/13 03:41:53;;;;;;;12.15;10.43;;;12.30;99.90;;;;;;5034313;28;20032;-67
2023/12/13 03:44:19;;;;;;;12.57;10.88;;;12.20;99.90;;;;;;5034432;28;20035;-64
2023/12/13 03:46:44;;;;;;;10.65;9.55;;;12.10;99.90;;;;;;5034333;28;20028;-68
2023/12/13 03:49:10;;;;;;;9.38;8.45;;;12.10;99.90;;;;;;5034180;28;20431;-67
2023/12/13 03:51:36;;;;;;;9.02;8.13;;;12.10;99.90;;;;;;5034220;28;20029;-63
2023/12/13 03:54:01;;;;;;;8.80;7.90;;;12.10;99.90;;;;;;5034211;28;20021;-65
2023/12/13 03:56:29;;;;;;;9.80;8.52;;;12.20;99.90;;;;;;5034026;28;20491;-67
2023/12/13 03:58:56;;;;;;;8.02;7.15;;;12.20;99.90;;;;;;5033988;28;20060;-66
2023/12/13 04:01:22;;;;;;;9.65;7.90;;;12.20;99.90;;;;;;5034284;28;20026;-62
2023/12/13 04:03:47;;;;;;;10.88;9.70;;;12.20;99.90;;;;;;5034103;28;20535;-64
2023/12/13 04:06:13;;;;;;;12.23;9.35;;;12.20;99.90;;;;;;5034055;28;20021;-66
2023/12/13 04:08:39;;;;;;;10.57;8.07;;;12.20;99.90;;;;;;5033879;28;20014;-70
2023/12/13 04:11:04;;;;;;;9.43;7.97;;;12.10;99.90;;;;;;5033935;28;20030;-68
2023/12/13 04:13:30;;;;;;;7.68;6.85;;;12.00;99.90;;;;;;5033820;28;20025;-64
2023/12/13 04:15:56;;;;;;;7.97;6.85;;;12.10;99.90;;;;;;5034000;28;20053;-63
2023/12/13 04:18:21;;;;;;;8.30;7.40;;;12.10;99.90;;;;;;5033888;28;20434;-63
2023/12/13 04:20:47;;;;;;;10.82;9.25;;;12.10;99.90;;;;;;5033804;28;20028;-64
2023/12/13 04:23:13;;;;;;;10.30;8.60;;;12.00;99.90;;;;;;5032092;28;20028;-67
2023/12/13 04:25:38;;;;;;;9.60;8.15;;;12.00;99.90;;;;;;5033914;28;20021;-71
2023/12/13 04:28:04;;;;;;;9.60;8.60;;;12.00;99.90;;;;;;5033659;28;20076;-65
2023/12/13 04:30:30;;;;;;;8.48;7.57;;;11.90;99.90;;;;;;5033642;28;20057;-64
2023/12/13 04:32:55;;;;;;;7.50;6.75;;;11.90;99.90;;;;;;5033627;28;20049;-67
2023/12/13 04:35:21;;;;;;;9.15;7.55;;;11.90;99.90;;;;;;5033450;28;20048;-63
2023/12/13 04:37:47;;;;;;;7.82;7.03;;;11.90;99.90;;;;;;5033282;28;20380;-65
2023/12/13 04:40:13;;;;;;;8.93;8.02;;;11.80;99.90;;;;;;5033311;28;20064;-64
2023/12/13 04:42:38;;;;;;;8.50;7.45;;;11.80;99.90;;;;;;5033535;28;20036;-64
2023/12/13 04:45:05;;;;;;;9.27;8.18;;;11.70;99.90;;;;;;5033207;28;20032;-60
2023/12/13 04:47:31;;;;;;;11.15;8.43;;;11.80;99.90;;;;;;5033055;28;20136;-66
2023/12/13 04:49:56;;;;;;;19.80;17.15;;;11.80;99.90;;;;;;5032137;28;20168;-70
2023/12/13 04:52:22;;;;;;;16.73;13.50;;;11.70;99.90;;;;;;5033127;28;20033;-60
2023/12/13 04:54:48;;;;;;;13.40;12.05;;;11.70;99.90;;;;;;5033224;28;20075;-65
2023/12/13 04:57:14;;;;;;;13.43;11.10;;;11.60;99.90;;;;;;5032895;28;20032;-67
2023/12/13 04:59:39;;;;;;;11.63;10.20;;;11.60;99.90;;;;;;5033133;28;20383;-65
2023/12/13 05:02:06;;;;;;;11.27;9.73;;;11.70;99.90;;;;;;5033121;28;20033;-63
2023/12/13 05:04:31;;;;;;;12.80;10.18;;;11.70;99.90;;;;;;5033308;28;20037;-66
2023/12/13 05:06:57;;;;;;;12.82;10.68;;;11.70;99.90;;;;;;5033041;28;20036;-65
2023/12/13 05:09:23;;;;;;;11.07;9.98;;;11.70;99.90;;;;;;5033049;28;20491;-67
2023/12/13 05:11:48;;;;;;;9.35;8.45;;;11.70;99.90;;;;;;5033127;28;20388;-63
2023/12/13 05:14:14;;;;;;;11.27;9.88;;;11.70;99.90;;;;;;5033057;28;20029;-72
2023/12/13 05:16:40;;;;;;;11.68;9.52;;;11.60;99.90;;;;;;5033055;28;20017;-63
2023/12/13 05:19:05;;;;;;;12.20;10.75;;;11.60;99.90;;;;;;5032959;28;20025;-71
2023/12/13 05:21:31;;;;;;;10.77;9.68;;;11.60;99.90;;;;;;5032958;28;20036;-67
2023/12/13 05:23:57;;;;;;;9.20;8.30;;;11.50;99.90;;;;;;5033061;28;20024;-65
2023/12/13 05:26:22;;;;;;;9.88;8.70;;;11.60;99.90;;;;;;5032963;28;20017;-61
2023/12/13 05:28:48;;;;;;;10.35;9.25;;;11.60;99.90;;;;;;5031724;28;20022;-71
2023/12/13 05:31:21;;;;;;;8.52;7.57;;;11.60;99.90;;;;;;5032890;28;20013;-70
2023/12/13 05:33:48;;;;;;;8.82;7.82;;;11.60;99.90;;;;;;5032943;28;20056;-64
2023/12/13 05:36:14;;;;;;;9.90;8.80;;;11.60;99.90;;;;;;5032752;28;20025;-64
2023/12/13 05:38:40;;;;;;;7.93;7.13;;;11.60;99.90;;;;;;5032880;28;20018;-64
2023/12/13 05:41:06;;;;;;;11.90;10.40;;;11.60;99.90;;;;;;5032717;28;20030;-64
2023/12/13 05:43:34;;;;;;;18.52;16.30;;;11.60;99.90;;;;;;5032947;28;20124;-64
2023/12/13 05:45:59;;;;;;;27.58;23.77;;;11.60;99.90;;;;;;5032869;28;20021;-67
2023/12/13 05:48:25;;;;;;;28.20;24.83;;;11.60;99.90;;;;;;5032507;28;20092;-66
2023/12/13 05:50:51;;;;;;;20.85;18.35;;;11.50;99.90;;;;;;5032656;28;20033;-65
2023/12/13 05:53:16;;;;;;;21.30;18.50;;;11.50;99.90;;;;;;5032747;28;20380;-64
2023/12/13 05:55:42;;;;;;;27.15;22.42;;;11.50;99.90;;;;;;5032653;28;20027;-67
2023/12/13 05:58:08;;;;;;;22.75;20.35;;;11.50;99.90;;;;;;5031540;28;20097;-67
2023/12/13 06:00:34;;;;;;;19.98;17.83;;;11.50;99.90;;;;;;5032642;28;20029;-66
2023/12/13 06:03:00;;;;;;;18.33;16.25;;;11.50;99.90;;;;;;5032208;28;20025;-69
2023/12/13 06:05:26;;;;;;;18.00;15.25;;;11.40;99.90;;;;;;5032425;28;20028;-69
2023/12/13 06:07:51;;;;;;;15.63;14.02;;;11.50;99.90;;;;;;5032531;28;20094;-67
2023/12/13 06:10:17;;;;;;;16.20;13.77;;;11.50;99.90;;;;;;5035945;28;20029;-67
2023/12/13 06:12:43;;;;;;;14.05;12.55;;;11.50;99.90;;;;;;5036188;28;20079;-64
2023/12/13 06:15:09;;;;;;;14.48;12.27;;;11.40;99.90;;;;;;5035947;28;20040;-67
2023/12/13 06:17:35;;;;;;;12.45;11.10;;;11.30;99.90;;;;;;5035611;28;20030;-65
2023/12/13 06:20:01;;;;;;;16.08;13.73;;;11.30;99.90;;;;;;5034986;28;20052;-65
2023/12/13 06:29:11;;;;;;;27.15;23.30;;;11.20;99.90;;;;;;5035776;28;20044;-63
2023/12/13 06:31:38;;;;;;;25.17;21.73;;;11.10;99.90;;;;;;5036347;28;20021;-64
2023/12/13 06:34:04;;;;;;;25.15;21.23;;;11.20;99.90;;;;;;5034549;28;20029;-65
2023/12/13 06:36:30;;;;;;;23.33;20.65;;;11.30;99.90;;;;;;5026622;28;20025;-66
2023/12/13 06:38:56;;;;;;;23.92;20.55;;;11.30;99.90;;;;;;5031879;28;20033;-68
2023/12/13 06:41:22;;;;;;;23.27;20.77;;;11.40;99.90;;;;;;5035210;28;20025;-64
2023/12/13 06:43:47;;;;;;;22.27;19.88;;;11.50;99.90;;;;;;5034112;28;20037;-67
2023/12/13 06:46:13;;;;;;;23.38;20.70;;;11.60;99.90;;;;;;5035268;28;20460;-64
2023/12/13 06:48:39;;;;;;;25.08;20.88;;;11.70;99.90;;;;;;5033815;28;20473;-64
2023/12/13 06:51:07;;;;;;;20.52;18.33;;;11.70;99.90;;;;;;5047401;28;20021;-65
2023/12/13 06:53:37;;;;;;;21.13;18.13;;;11.70;99.90;;;;;;5055102;28;20021;-67
2023/12/13 06:56:03;;;;;;;19.02;16.73;;;11.80;99.90;;;;;;5055168;28;20029;-65
2023/12/13 06:58:28;;;;;;;18.73;16.73;;;11.90;99.90;;;;;;5055189;28;20032;-58
2023/12/13 07:00:54;;;;;;;23.33;19.40;;;11.90;99.90;;;;;;5054538;28;20033;-67
2023/12/13 07:03:20;;;;;;;18.83;16.88;;;12.00;99.90;;;;;;5028349;28;20396;-67
2023/12/13 07:05:46;;;;;;;23.00;19.60;;;11.90;99.90;;;;;;5028453;28;20164;-66
2023/12/13 07:08:13;;;;;;;19.02;16.73;;;12.00;99.90;;;;;;5030588;28;20040;-65
2023/12/13 07:10:43;;;;;;;16.25;14.55;;;12.00;99.90;;;;;;5030308;28;20030;-67
2023/12/13 07:13:09;;;;;;;16.98;15.18;;;12.00;99.90;;;;;;5023190;28;20041;-62
2023/12/13 07:15:35;;;;;;;15.45;13.60;;;12.20;99.90;;;;;;5013322;28;20026;-66
2023/12/13 07:18:01;;;;;;;14.50;13.00;;;12.20;99.90;;;;;;5014616;28;20435;-68
2023/12/13 07:20:26;;;;;;;14.75;13.07;;;12.30;99.90;;;;;;5032366;28;20044;-64
2023/12/13 07:22:52;;;;;;;17.42;15.43;;;12.40;99.90;;;;;;5033111;28;20108;-63
2023/12/13 07:25:18;;;;;;;18.25;16.20;;;12.40;99.90;;;;;;5024237;28;20452;-65
2023/12/13 07:27:43;;;;;;;17.88;16.02;;;12.40;99.90;;;;;;5027410;28;20522;-68
2023/12/13 07:30:09;;;;;;;18.85;16.38;;;12.40;99.90;;;;;;5025226;28;20053;-63
2023/12/13 07:32:35;;;;;;;17.00;15.30;;;12.50;99.90;;;;;;5017932;28;20034;-61
2023/12/13 07:35:01;;;;;;;25.73;20.65;;;12.50;99.90;;;;;;5012602;28;20026;-65
2023/12/13 07:37:28;;;;;;;35.92;27.52;;;12.50;99.90;;;;;;5024237;28;20084;-62
2023/12/13 07:39:53;;;;;;;25.02;20.60;;;12.50;99.90;;;;;;5032971;28;20025;-64
2023/12/13 07:42:19;;;;;;;24.35;21.20;;;12.60;99.90;;;;;;5030037;28;20036;-62
2023/12/13 07:44:45;;;;;;;24.15;20.52;;;12.60;99.90;;;;;;5014232;28;20026;-62
2023/12/13 07:47:12;;;;;;;25.90;21.50;;;12.60;99.90;;;;;;5017461;28;20460;-67
2023/12/13 07:49:38;;;;;;;23.10;19.67;;;12.70;99.90;;;;;;5022171;28;20026;-68
2023/12/13 07:52:06;;;;;;;21.35;18.15;;;12.70;99.90;;;;;;5028619;28;20375;-66
2023/12/13 07:54:32;;;;;;;21.60;19.02;;;12.80;99.90;;;;;;5032551;28;20040;-70
2023/12/13 07:56:58;;;;;;;21.95;19.13;;;12.80;99.90;;;;;;5016209;28;20026;-69
2023/12/13 07:59:24;;;;;;;20.77;18.55;;;12.80;99.90;;;;;;5020478;28;20041;-65
2023/12/13 08:01:50;;;;;;;22.10;18.30;;;12.90;99.90;;;;;;5030432;28;20029;-68
2023/12/13 08:04:16;;;;;;;20.48;18.27;;;12.90;99.90;;;;;;5019043;28;20036;-64
2023/12/13 08:06:42;;;;;;;22.48;18.25;;;12.90;99.90;;;;;;5020372;28;20025;-65
2023/12/13 08:09:10;;;;;;;20.45;17.73;;;12.90;99.90;;;;;;5029535;28;20040;-67
2023/12/13 08:11:37;;;;;;;22.58;20.13;;;13.00;99.90;;;;;;5020842;28;20540;-66
2023/12/13 08:14:03;;;;;;;29.88;26.45;;;13.00;99.90;;;;;;5019534;28;20041;-64
2023/12/13 08:16:29;;;;;;;26.98;22.88;;;12.90;99.90;;;;;;5030475;28;20415;-68
2023/12/13 08:18:55;;;;;;;24.85;22.17;;;12.90;99.90;;;;;;5027379;28;20486;-67
2023/12/13 08:21:26;;;;;;;25.40;22.65;;;13.00;99.90;;;;;;5031259;28;20132;-65
2023/12/13 08:23:52;;;;;;;23.15;19.85;;;13.10;99.90;;;;;;5040833;28;20047;-66
2023/12/13 08:26:18;;;;;;;23.17;20.67;;;13.20;99.90;;;;;;5031221;28;20420;-64
2023/12/13 08:28:44;;;;;;;26.40;23.60;;;13.20;99.90;;;;;;5031914;28;20030;-67
2023/12/13 08:31:11;;;;;;;24.20;21.58;;;13.20;99.90;;;;;;5031130;28;20029;-64
2023/12/13 08:33:41;;;;;;;24.45;21.83;;;13.30;99.90;;;;;;5032538;28;20033;-66
2023/12/13 08:36:12;;;;;;;27.58;23.98;;;13.40;99.90;;;;;;5037054;28;20045;-65
2023/12/13 08:38:42;;;;;;;22.00;19.45;;;13.50;99.90;;;;;;5029628;28;20025;-65
2023/12/13 08:41:09;;;;;;;24.17;21.60;;;13.50;99.90;;;;;;5030984;28;20444;-66
2023/12/13 08:43:35;;;;;;;29.85;26.52;;;13.60;99.90;;;;;;5028234;28;20036;-63
2023/12/13 08:46:01;;;;;;;23.42;21.02;;;13.60;99.90;;;;;;5033542;28;20119;-68
2023/12/13 08:48:27;;;;;;;29.75;26.17;;;13.70;99.90;;;;;;5032993;28;20044;-64
2023/12/13 08:50:54;;;;;;;24.98;22.35;;;13.70;99.90;;;;;;5029188;28;20045;-65
2023/12/13 08:53:20;;;;;;;28.13;25.08;;;13.80;99.90;;;;;;5017313;28;20518;-64
2023/12/13 08:55:45;;;;;;;28.67;23.17;;;13.90;99.90;;;;;;5011908;28;20563;-67
2023/12/13 08:58:13;;;;;;;23.70;21.23;;;14.00;99.90;;;;;;5016982;28;20022;-65
2023/12/13 09:00:38;;;;;;;23.52;21.10;;;14.10;99.90;;;;;;5045931;28;20132;-70
2023/12/13 09:03:04;;;;;;;34.00;28.90;;;14.30;99.90;;;;;;5049829;28;20100;-65
2023/12/13 09:05:30;;;;;;;27.27;24.38;;;14.30;99.90;;;;;;5037550;28;20053;-66
2023/12/13 09:07:56;;;;;;;28.67;25.67;;;14.40;99.90;;;;;;5030668;28;20684;-65
2023/12/13 09:10:23;;;;;;;39.55;35.22;;;14.50;99.90;;;;;;5042918;28;20060;-66
2023/12/13 09:12:50;;;;;;;36.50;31.30;;;14.60;99.90;;;;;;5012321;28;20026;-65
2023/12/13 09:15:19;;;;;;;45.55;40.63;;;14.70;99.90;;;;;;5012123;28;20030;-67
2023/12/13 09:17:46;;;;;;;49.25;43.33;;;14.80;99.90;;;;;;5012238;28;20022;-67
2023/12/13 09:20:15;;;;;;;42.90;38.35;;;14.80;99.90;;;;;;5026606;28;20052;-66
2023/12/13 09:22:42;;;;;;;42.42;37.80;;;14.90;99.90;;;;;;5030896;28;20216;-65
2023/12/13 09:25:12;;;;;;;42.15;37.60;;;15.00;99.90;;;;;;5031120;28;20049;-68
2023/12/13 09:27:38;;;;;;;39.65;35.35;;;15.00;99.90;;;;;;5031425;28;20108;-70
2023/12/13 09:30:04;;;;;;;40.60;35.60;;;15.10;99.90;;;;;;5031793;28;20097;-66
2023/12/13 09:32:33;;;;;;;44.80;38.55;;;15.00;99.90;;;;;;5032448;28;20435;-63
2023/12/13 09:34:59;;;;;;;34.38;30.77;;;15.10;99.90;;;;;;5032147;28;20040;-74
2023/12/13 09:37:24;;;;;;;24.42;21.50;;;15.40;99.90;;;;;;5032268;28;20144;-67
2023/12/13 09:39:50;;;;;;;13.85;11.35;;;15.70;99.00;;;;;;5032238;28;20460;-66
2023/12/13 09:42:17;;;;;;;9.20;8.25;;;16.00;97.20;;;;;;5032362;28;20029;-67
2023/12/13 09:44:44;;;;;;;6.80;5.30;;;16.40;93.50;;;;;;5035280;28;20025;-68
2023/12/13 09:47:13;;;;;;;4.10;3.42;;;16.80;91.50;;;;;;5036379;28;20453;-67
2023/12/13 09:49:40;;;;;;;5.05;4.15;;;17.10;86.00;;;;;;5034677;28;20077;-69
2023/12/13 09:52:11;;;;;;;5.50;4.95;;;17.30;82.40;;;;;;5032842;28;20026;-65
2023/12/13 09:54:39;;;;;;;3.67;3.30;;;17.50;78.10;;;;;;5032731;28;20096;-72
2023/12/13 09:57:07;;;;;;;4.90;4.10;;;17.70;79.50;;;;;;5031931;28;20018;-69
2023/12/13 09:59:34;;;;;;;4.15;3.75;;;17.80;78.10;;;;;;5033285;28;20025;-65
2023/12/13 10:02:00;;;;;;;3.22;2.92;;;17.90;74.80;;;;;;5034360;28;20048;-69
2023/12/13 10:04:28;;;;;;;3.47;3.17;;;18.00;74.00;;;;;;5034080;28;20022;-70
2023/12/13 10:06:55;;;;;;;4.53;3.92;;;18.10;72.40;;;;;;5035046;28;20040;-63
2023/12/13 10:09:25;;;;;;;5.78;5.25;;;18.20;70.60;;;;;;5035134;28;20029;-67
2023/12/13 10:11:50;;;;;;;6.43;5.50;;;18.20;69.70;;;;;;5034246;28;20025;-67
2023/12/13 10:14:16;;;;;;;6.35;5.45;;;18.30;70.70;;;;;;5034782;28;20022;-70
2023/12/13 10:16:42;;;;;;;4.63;4.18;;;18.40;69.20;;;;;;5034106;28;20388;-71
2023/12/13 10:19:07;;;;;;;4.47;4.07;;;18.40;69.40;;;;;;5034550;28;20025;-65
2023/12/13 10:21:38;;;;;;;4.70;4.22;;;18.40;69.10;;;;;;5034481;28;20029;-71
2023/12/13 10:24:07;;;;;;;4.50;4.10;;;18.50;68.70;;;;;;5033087;28;20017;-66
2023/12/13 10:26:35;;;;;;;4.90;4.40;;;18.60;68.90;;;;;;5015857;28;20033;-63
2023/12/13 10:29:02;;;;;;;4.03;3.67;;;18.60;69.50;;;;;;5014865;28;20451;-64
2023/12/13 10:31:27;;;;;;;3.97;3.67;;;18.60;66.40;;;;;;5024021;28;20029;-64
2023/12/13 10:33:53;;;;;;;4.05;3.67;;;18.70;65.10;;;;;;5033191;28;20066;-63
2023/12/13 10:36:20;;;;;;;4.05;3.75;;;18.80;65.60;;;;;;5033695;28;20025;-65
2023/12/13 10:38:53;;;;;;;3.25;2.85;;;18.80;66.30;;;;;;5033582;28;20455;-66
2023/12/13 10:41:25;;;;;;;2.85;2.65;;;18.90;65.10;;;;;;5033525;28;20108;-67
2023/12/13 10:43:57;;;;;;;3.78;3.47;;;18.90;63.80;;;;;;5031677;28;20366;-66
2023/12/13 10:46:26;;;;;;;4.32;3.88;;;18.90;63.90;;;;;;5032480;28;20112;-68
2023/12/13 10:48:53;;;;;;;5.05;4.55;;;18.90;61.90;;;;;;5033140;28;20064;-65
2023/12/13 10:51:20;;;;;;;4.40;4.00;;;18.90;62.50;;;;;;5015956;28;20161;-67
2023/12/13 10:53:46;;;;;;;5.32;4.82;;;19.00;63.80;;;;;;5022732;28;20041;-62
2023/12/13 10:56:15;;;;;;;6.40;5.80;;;19.00;62.30;;;;;;5041296;28;20026;-66
2023/12/13 10:58:46;;;;;;;8.50;7.70;;;18.90;60.80;;;;;;5029514;28;20044;-63
2023/12/13 11:01:14;;;;;;;8.82;7.97;;;18.90;61.90;;;;;;5015399;28;20125;-65
2023/12/13 11:03:43;;;;;;;8.25;7.45;;;19.00;62.30;;;;;;5014743;28;20021;-69
2023/12/13 11:06:13;;;;;;;7.20;6.50;;;18.90;61.70;;;;;;5028919;28;20052;-66
2023/12/13 11:08:41;;;;;;;8.98;7.97;;;18.90;61.70;;;;;;5032352;28;20029;-65
2023/12/13 11:11:10;;;;;;;8.43;7.53;;;19.00;61.90;;;;;;5033954;28;20060;-68
2023/12/13 11:13:50;;;;;;;8.65;7.38;;;19.00;61.70;;;;;;5034225;28;20025;-66
2023/12/13 11:16:21;;;;;;;9.60;8.60;;;19.00;59.70;;;;;;5015558;28;20530;-67
2023/12/13 11:18:50;;;;;;;8.13;7.32;;;19.00;61.20;;;;;;5022084;28;20028;-62
2023/12/13 11:21:25;;;;;;;8.02;6.90;;;19.00;61.50;;;;;;5030409;28;20524;-68
2023/12/13 11:24:00;;;;;;;6.88;6.18;;;19.00;60.20;;;;;;5041408;28;20044;-69
2023/12/13 11:26:32;;;;;;;5.05;4.55;;;19.10;61.00;;;;;;5022929;28;20034;-68
2023/12/13 11:29:00;;;;;;;4.18;3.78;;;19.10;59.70;;;;;;5035727;28;20032;-69
2023/12/13 11:31:26;;;;;;;4.30;3.90;;;19.10;59.50;;;;;;5050207;28;20025;-68
2023/12/13 11:33:56;;;;;;;4.32;3.90;;;19.20;59.90;;;;;;5051651;28;20497;-68
2023/12/13 11:36:24;;;;;;;4.90;4.45;;;19.30;59.20;;;;;;5028133;28;20383;-65
2023/12/13 11:38:52;;;;;;;6.10;5.50;;;19.30;60.10;;;;;;5021214;28;20115;-67
2023/12/13 11:41:18;;;;;;;7.32;6.63;;;19.30;59.40;;;;;;5017849;28;20034;-66
2023/12/13 11:43:47;;;;;;;5.10;4.60;;;19.40;58.90;;;;;;5029435;28;20546;-70
2023/12/13 11:46:13;;;;;;;3.63;3.15;;;19.40;57.70;;;;;;5028707;28;20032;-66
2023/12/13 11:48:39;;;;;;;3.25;2.90;;;19.40;57.10;;;;;;5035511;28;20049;-63
2023/12/13 11:51:05;;;;;;;4.30;3.85;;;19.30;57.20;;;;;;5034075;28;20099;-61
2023/12/13 11:53:32;;;;;;;3.45;3.15;;;19.30;56.90;;;;;;5041939;28;20487;-68
2023/12/13 11:55:58;;;;;;;3.83;3.53;;;19.40;57.70;;;;;;5038552;28;20043;-67
2023/12/13 11:58:30;;;;;;;3.20;2.90;;;19.30;57.40;;;;;;5042800;28;20032;-69
2023/12/13 12:00:58;;;;;;;5.95;4.57;;;19.30;57.10;;;;;;5026838;28;20150;-66
2023/12/13 12:03:24;;;;;;;4.28;3.72;;;19.30;57.20;;;;;;5026577;28;20437;-67
2023/12/13 12:05:50;;;;;;;3.30;3.00;;;19.20;57.10;;;;;;5019356;28;20049;-67
2023/12/13 12:08:22;;;;;;;4.30;3.55;;;19.20;56.60;;;;;;5030729;28;20033;-69
2023/12/13 12:10:47;;;;;;;3.88;3.50;;;19.20;57.30;;;;;;5019540;28;20361;-65
2023/12/13 12:13:13;;;;;;;3.15;2.67;;;19.10;56.90;;;;;;5027687;28;20080;-68
2023/12/13 12:15:41;;;;;;;4.00;3.03;;;19.10;56.90;;;;;;5041807;28;20025;-65
2023/12/13 12:18:06;;;;;;;3.80;3.53;;;19.20;56.70;;;;;;5035660;28;20025;-65
2023/12/13 12:20:34;;;;;;;4.25;3.85;;;19.20;56.70;;;;;;5028415;28;20037;-69
2023/12/13 12:23:02;;;;;;;6.55;5.85;;;19.30;56.80;;;;;;5040107;28;20087;-65
2023/12/13 12:25:31;;;;;;;5.97;5.38;;;19.30;57.00;;;;;;5046158;28;20029;-68
2023/12/13 12:27:57;;;;;;;4.80;4.05;;;19.30;57.00;;;;;;5041682;28;20071;-65
2023/12/13 12:30:22;;;;;;;6.07;5.47;;;19.30;56.80;;;;;;5034850;28;20021;-66
2023/12/13 12:32:48;;;;;;;3.47;3.17;;;19.20;56.70;;;;;;5049889;28;20094;-64
2023/12/13 12:35:14;;;;;;;5.75;4.53;;;19.20;57.60;;;;;;5051997;28;20021;-72
2023/12/13 12:37:40;;;;;;;5.07;4.00;;;19.20;57.60;;;;;;5037486;28;20025;-64
2023/12/13 12:40:08;;;;;;;4.05;3.40;;;19.20;57.50;;;;;;5034590;28;20036;-63